sensor_id;sensor_type;location;lat;lon;timestamp;temperature;humidity
43647;DHT22;56152;49.996;18.980;2023-04-29T00:04:23;9.90;70.40
43647;DHT22;56152;49.996;18.980;2023-04-29T00:09:25;9.90;70.40
43647;DHT22;56152;49.996;18.980;2023-04-29T00:14:29;9.90;70.10
43647;DHT22;56152;49.996;18.980;2023-04-29T00:19:33;10.00;70.20
43647;DHT22;56152;49.996;18.980;2023-04-29T00:24:37;9.90;70.30
43647;DHT22;56152;49.996;18.980;2023-04-29T00:29:44;9.90;70.00
43647;DHT22;56152;49.996;18.980;2023-04-29T00:34:45;9.90;69.70
43647;DHT22;56152;49.996;18.980;2023-04-29T00:39:47;9.80;69.60
43647;DHT22;56152;49.996;18.980;2023-04-29T00:44:57;9.80;69.80
43647;DHT22;56152;49.996;18.980;2023-04-29T00:49:59;9.70;69.80
43647;DHT22;56152;49.996;18.980;2023-04-29T00:55:01;9.60;69.50
43647;DHT22;56152;49.996;18.980;2023-04-29T01:00:09;9.50;69.30
43647;DHT22;56152;49.996;18.980;2023-04-29T01:05:21;9.50;69.60
43647;DHT22;56152;49.996;18.980;2023-04-29T01:10:28;9.40;69.50
43647;DHT22;56152;49.996;18.980;2023-04-29T01:15:34;9.40;69.60
43647;DHT22;56152;49.996;18.980;2023-04-29T01:20:40;9.40;69.70
43647;DHT22;56152;49.996;18.980;2023-04-29T01:25:47;9.40;69.70
43647;DHT22;56152;49.996;18.980;2023-04-29T01:30:55;9.40;69.90
43647;DHT22;56152;49.996;18.980;2023-04-29T01:36:07;9.40;70.20
43647;DHT22;56152;49.996;18.980;2023-04-29T01:41:17;9.30;70.50
43647;DHT22;56152;49.996;18.980;2023-04-29T01:46:19;9.30;70.70
43647;DHT22;56152;49.996;18.980;2023-04-29T01:51:32;9.30;70.80
43647;DHT22;56152;49.996;18.980;2023-04-29T01:56:37;9.30;70.90
43647;DHT22;56152;49.996;18.980;2023-04-29T02:01:40;9.30;71.10
43647;DHT22;56152;49.996;18.980;2023-04-29T02:06:42;9.30;71.30
43647;DHT22;56152;49.996;18.980;2023-04-29T02:11:46;9.30;71.90
43647;DHT22;56152;49.996;18.980;2023-04-29T02:16:58;9.20;72.20
43647;DHT22;56152;49.996;18.980;2023-04-29T02:22:03;9.20;72.30
43647;DHT22;56152;49.996;18.980;2023-04-29T02:27:09;9.20;72.60
43647;DHT22;56152;49.996;18.980;2023-04-29T02:32:10;9.30;73.10
43647;DHT22;56152;49.996;18.980;2023-04-29T02:37:14;9.30;73.90
43647;DHT22;56152;49.996;18.980;2023-04-29T02:42:21;9.20;73.70
43647;DHT22;56152;49.996;18.980;2023-04-29T02:47:24;9.20;74.20
43647;DHT22;56152;49.996;18.980;2023-04-29T02:52:30;9.10;74.60
43647;DHT22;56152;49.996;18.980;2023-04-29T02:57:34;9.10;74.70
43647;DHT22;56152;49.996;18.980;2023-04-29T03:02:35;9.10;74.80
43647;DHT22;56152;49.996;18.980;2023-04-29T03:07:37;9.10;75.20
43647;DHT22;56152;49.996;18.980;2023-04-29T03:12:43;9.10;76.20
43647;DHT22;56152;49.996;18.980;2023-04-29T03:17:45;9.10;76.10
43647;DHT22;56152;49.996;18.980;2023-04-29T03:22:47;9.00;76.40
43647;DHT22;56152;49.996;18.980;2023-04-29T03:27:50;9.00;76.70
43647;DHT22;56152;49.996;18.980;2023-04-29T03:32:56;9.00;76.90
43647;DHT22;56152;49.996;18.980;2023-04-29T03:38:05;9.00;77.10
43647;DHT22;56152;49.996;18.980;2023-04-29T03:43:17;9.00;77.20
43647;DHT22;56152;49.996;18.980;2023-04-29T03:48:25;9.00;77.30
43647;DHT22;56152;49.996;18.980;2023-04-29T03:53:34;9.00;77.40
43647;DHT22;56152;49.996;18.980;2023-04-29T03:58:38;9.00;77.70
43647;DHT22;56152;49.996;18.980;2023-04-29T04:03:41;9.00;77.70
43647;DHT22;56152;49.996;18.980;2023-04-29T04:08:46;9.10;77.90
43647;DHT22;56152;49.996;18.980;2023-04-29T04:13:50;9.20;78.20
43647;DHT22;56152;49.996;18.980;2023-04-29T04:18:57;9.20;78.30
43647;DHT22;56152;49.996;18.980;2023-04-29T04:24:04;9.20;78.30
43647;DHT22;56152;49.996;18.980;2023-04-29T04:29:09;9.20;78.40
43647;DHT22;56152;49.996;18.980;2023-04-29T04:34:15;9.30;78.60
43647;DHT22;56152;49.996;18.980;2023-04-29T04:39:28;9.30;78.60
43647;DHT22;56152;49.996;18.980;2023-04-29T04:44:32;9.40;78.70
43647;DHT22;56152;49.996;18.980;2023-04-29T04:49:35;9.40;78.60
43647;DHT22;56152;49.996;18.980;2023-04-29T04:54:38;9.50;78.80
43647;DHT22;56152;49.996;18.980;2023-04-29T04:59:41;9.50;78.80
43647;DHT22;56152;49.996;18.980;2023-04-29T05:04:43;9.60;78.90
43647;DHT22;56152;49.996;18.980;2023-04-29T05:09:47;9.70;79.00
43647;DHT22;56152;49.996;18.980;2023-04-29T05:14:54;9.80;79.00
43647;DHT22;56152;49.996;18.980;2023-04-29T05:19:56;9.90;79.20
43647;DHT22;56152;49.996;18.980;2023-04-29T05:24:58;10.00;79.40
43647;DHT22;56152;49.996;18.980;2023-04-29T05:30:05;10.10;79.40
43647;DHT22;56152;49.996;18.980;2023-04-29T05:35:08;10.20;79.30
43647;DHT22;56152;49.996;18.980;2023-04-29T05:40:13;10.30;79.30
43647;DHT22;56152;49.996;18.980;2023-04-29T05:45:17;10.30;79.40
43647;DHT22;56152;49.996;18.980;2023-04-29T05:50:21;10.30;79.50
43647;DHT22;56152;49.996;18.980;2023-04-29T05:55:23;10.40;79.90
43647;DHT22;56152;49.996;18.980;2023-04-29T06:00:28;10.40;79.90
43647;DHT22;56152;49.996;18.980;2023-04-29T06:05:31;10.40;80.10
43647;DHT22;56152;49.996;18.980;2023-04-29T06:10:34;10.40;80.20
43647;DHT22;56152;49.996;18.980;2023-04-29T06:15:41;10.50;80.40
43647;DHT22;56152;49.996;18.980;2023-04-29T06:20:43;10.50;80.60
43647;DHT22;56152;49.996;18.980;2023-04-29T06:25:49;10.60;80.90
43647;DHT22;56152;49.996;18.980;2023-04-29T06:30:53;10.70;81.10
43647;DHT22;56152;49.996;18.980;2023-04-29T06:36:03;10.80;81.30
43647;DHT22;56152;49.996;18.980;2023-04-29T06:41:06;10.90;81.40
43647;DHT22;56152;49.996;18.980;2023-04-29T06:46:10;11.00;81.40
43647;DHT22;56152;49.996;18.980;2023-04-29T06:51:12;11.10;81.70
43647;DHT22;56152;49.996;18.980;2023-04-29T06:56:17;11.20;81.80
43647;DHT22;56152;49.996;18.980;2023-04-29T07:01:21;11.30;81.40
43647;DHT22;56152;49.996;18.980;2023-04-29T07:06:25;11.40;81.60
43647;DHT22;56152;49.996;18.980;2023-04-29T07:11:28;11.30;81.50
43647;DHT22;56152;49.996;18.980;2023-04-29T07:16:32;11.30;81.60
43647;DHT22;56152;49.996;18.980;2023-04-29T07:21:35;11.30;81.80
43647;DHT22;56152;49.996;18.980;2023-04-29T07:26:37;11.30;81.80
43647;DHT22;56152;49.996;18.980;2023-04-29T07:31:43;11.40;81.70
43647;DHT22;56152;49.996;18.980;2023-04-29T07:36:46;11.50;81.60
43647;DHT22;56152;49.996;18.980;2023-04-29T07:41:48;11.80;81.20
43647;DHT22;56152;49.996;18.980;2023-04-29T07:46:54;12.00;80.80
43647;DHT22;56152;49.996;18.980;2023-04-29T07:51:55;12.20;80.70
43647;DHT22;56152;49.996;18.980;2023-04-29T07:56:58;12.40;80.20
43647;DHT22;56152;49.996;18.980;2023-04-29T08:02:03;12.50;79.70
43647;DHT22;56152;49.996;18.980;2023-04-29T08:07:05;12.50;79.70
43647;DHT22;56152;49.996;18.980;2023-04-29T08:12:08;12.50;79.60
43647;DHT22;56152;49.996;18.980;2023-04-29T08:17:13;12.60;79.90
43647;DHT22;56152;49.996;18.980;2023-04-29T08:22:16;12.70;79.70
43647;DHT22;56152;49.996;18.980;2023-04-29T08:27:19;12.80;79.30
43647;DHT22;56152;49.996;18.980;2023-04-29T08:32:23;12.90;79.10
43647;DHT22;56152;49.996;18.980;2023-04-29T08:37:27;13.00;78.80
43647;DHT22;56152;49.996;18.980;2023-04-29T08:42:38;13.30;78.40
43647;DHT22;56152;49.996;18.980;2023-04-29T08:48:02;13.60;77.70
43647;DHT22;56152;49.996;18.980;2023-04-29T08:53:05;14.20;76.60
43647;DHT22;56152;49.996;18.980;2023-04-29T08:58:13;14.70;75.10
43647;DHT22;56152;49.996;18.980;2023-04-29T09:03:23;15.30;73.30
43647;DHT22;56152;49.996;18.980;2023-04-29T09:08:31;15.80;72.30
43647;DHT22;56152;49.996;18.980;2023-04-29T09:13:34;16.10;71.40
43647;DHT22;56152;49.996;18.980;2023-04-29T09:18:46;16.50;70.60
43647;DHT22;56152;49.996;18.980;2023-04-29T09:23:50;16.80;69.60
43647;DHT22;56152;49.996;18.980;2023-04-29T09:29:06;16.90;68.80
43647;DHT22;56152;49.996;18.980;2023-04-29T09:34:11;16.50;69.10
43647;DHT22;56152;49.996;18.980;2023-04-29T09:39:16;16.40;70.00
43647;DHT22;56152;49.996;18.980;2023-04-29T09:44:19;16.30;69.70
43647;DHT22;56152;49.996;18.980;2023-04-29T09:49:26;16.20;69.80
43647;DHT22;56152;49.996;18.980;2023-04-29T09:54:29;16.30;69.40
43647;DHT22;56152;49.996;18.980;2023-04-29T09:59:34;16.30;69.40
43647;DHT22;56152;49.996;18.980;2023-04-29T10:04:39;16.20;69.40
43647;DHT22;56152;49.996;18.980;2023-04-29T10:09:46;16.00;70.20
43647;DHT22;56152;49.996;18.980;2023-04-29T10:14:54;15.70;69.50
43647;DHT22;56152;49.996;18.980;2023-04-29T10:20:02;15.50;70.70
43647;DHT22;56152;49.996;18.980;2023-04-29T10:25:07;15.60;70.90
43647;DHT22;56152;49.996;18.980;2023-04-29T10:30:15;15.70;70.80
43647;DHT22;56152;49.996;18.980;2023-04-29T10:35:20;15.90;70.20
43647;DHT22;56152;49.996;18.980;2023-04-29T10:40:30;16.10;69.90
43647;DHT22;56152;49.996;18.980;2023-04-29T10:45:32;16.10;69.60
43647;DHT22;56152;49.996;18.980;2023-04-29T10:51:01;15.90;69.60
43647;DHT22;56152;49.996;18.980;2023-04-29T10:56:07;15.50;70.20
43647;DHT22;56152;49.996;18.980;2023-04-29T11:01:12;15.30;70.90
43647;DHT22;56152;49.996;18.980;2023-04-29T11:06:16;14.90;71.70
43647;DHT22;56152;49.996;18.980;2023-04-29T11:11:18;14.40;73.10
43647;DHT22;56152;49.996;18.980;2023-04-29T11:16:25;14.10;74.20
43647;DHT22;56152;49.996;18.980;2023-04-29T11:21:33;13.80;76.20
43647;DHT22;56152;49.996;18.980;2023-04-29T11:26:35;13.30;77.70
43647;DHT22;56152;49.996;18.980;2023-04-29T11:31:37;12.90;79.70
43647;DHT22;56152;49.996;18.980;2023-04-29T11:36:41;12.70;81.40
43647;DHT22;56152;49.996;18.980;2023-04-29T11:41:44;12.70;82.70
43647;DHT22;56152;49.996;18.980;2023-04-29T11:46:46;12.70;83.30
43647;DHT22;56152;49.996;18.980;2023-04-29T11:51:50;12.90;83.90
43647;DHT22;56152;49.996;18.980;2023-04-29T11:56:53;13.00;84.30
43647;DHT22;56152;49.996;18.980;2023-04-29T12:01:57;13.20;85.00
43647;DHT22;56152;49.996;18.980;2023-04-29T12:07:06;13.60;85.50
43647;DHT22;56152;49.996;18.980;2023-04-29T12:12:12;14.30;85.10
43647;DHT22;56152;49.996;18.980;2023-04-29T12:17:15;14.80;84.10
43647;DHT22;56152;49.996;18.980;2023-04-29T12:22:21;14.80;84.00
43647;DHT22;56152;49.996;18.980;2023-04-29T12:27:24;14.70;83.90
43647;DHT22;56152;49.996;18.980;2023-04-29T12:32:26;14.50;84.10
43647;DHT22;56152;49.996;18.980;2023-04-29T12:37:38;14.50;84.70
43647;DHT22;56152;49.996;18.980;2023-04-29T12:42:41;14.70;84.70
43647;DHT22;56152;49.996;18.980;2023-04-29T12:47:44;15.30;84.60
43647;DHT22;56152;49.996;18.980;2023-04-29T12:52:53;16.20;82.50
43647;DHT22;56152;49.996;18.980;2023-04-29T12:57:55;16.20;81.30
43647;DHT22;56152;49.996;18.980;2023-04-29T13:02:59;16.30;81.90
43647;DHT22;56152;49.996;18.980;2023-04-29T13:08:03;16.90;80.50
43647;DHT22;56152;49.996;18.980;2023-04-29T13:13:07;17.10;79.50
43647;DHT22;56152;49.996;18.980;2023-04-29T13:18:10;17.30;79.60
43647;DHT22;56152;49.996;18.980;2023-04-29T13:23:13;17.10;79.20
43647;DHT22;56152;49.996;18.980;2023-04-29T13:28:17;17.40;79.30
43647;DHT22;56152;49.996;18.980;2023-04-29T13:33:19;17.30;78.80
43647;DHT22;56152;49.996;18.980;2023-04-29T13:38:33;17.60;79.10
43647;DHT22;56152;49.996;18.980;2023-04-29T13:43:36;18.10;77.70
43647;DHT22;56152;49.996;18.980;2023-04-29T13:48:39;18.00;76.50
43647;DHT22;56152;49.996;18.980;2023-04-29T13:53:44;18.20;76.20
43647;DHT22;56152;49.996;18.980;2023-04-29T13:58:46;18.10;75.30
43647;DHT22;56152;49.996;18.980;2023-04-29T14:03:53;17.90;74.50
43647;DHT22;56152;49.996;18.980;2023-04-29T14:08:57;18.00;75.20
43647;DHT22;56152;49.996;18.980;2023-04-29T14:14:00;18.30;74.60
43647;DHT22;56152;49.996;18.980;2023-04-29T14:19:02;18.10;73.70
43647;DHT22;56152;49.996;18.980;2023-04-29T14:24:08;17.70;73.90
43647;DHT22;56152;49.996;18.980;2023-04-29T14:29:13;17.40;74.40
43647;DHT22;56152;49.996;18.980;2023-04-29T14:34:15;17.10;75.00
43647;DHT22;56152;49.996;18.980;2023-04-29T14:39:20;16.80;75.30
43647;DHT22;56152;49.996;18.980;2023-04-29T14:44:23;16.60;75.60
43647;DHT22;56152;49.996;18.980;2023-04-29T14:49:24;16.30;75.60
43647;DHT22;56152;49.996;18.980;2023-04-29T14:54:36;16.20;76.00
43647;DHT22;56152;49.996;18.980;2023-04-29T14:59:39;16.10;75.70
43647;DHT22;56152;49.996;18.980;2023-04-29T15:04:41;16.00;75.80
43647;DHT22;56152;49.996;18.980;2023-04-29T15:09:48;16.00;75.70
43647;DHT22;56152;49.996;18.980;2023-04-29T15:14:57;15.90;75.60
43647;DHT22;56152;49.996;18.980;2023-04-29T15:20:00;15.80;75.50
43647;DHT22;56152;49.996;18.980;2023-04-29T15:25:08;15.70;75.80
43647;DHT22;56152;49.996;18.980;2023-04-29T15:30:12;15.60;75.80
43647;DHT22;56152;49.996;18.980;2023-04-29T15:35:19;15.40;76.00
43647;DHT22;56152;49.996;18.980;2023-04-29T15:40:23;15.30;76.50
43647;DHT22;56152;49.996;18.980;2023-04-29T15:45:25;15.10;76.80
43647;DHT22;56152;49.996;18.980;2023-04-29T15:50:32;15.00;77.50
43647;DHT22;56152;49.996;18.980;2023-04-29T15:55:37;14.90;78.00
43647;DHT22;56152;49.996;18.980;2023-04-29T16:00:39;14.80;78.30
43647;DHT22;56152;49.996;18.980;2023-04-29T16:05:42;14.80;78.80
43647;DHT22;56152;49.996;18.980;2023-04-29T16:10:49;14.80;78.70
43647;DHT22;56152;49.996;18.980;2023-04-29T16:15:53;14.80;78.60
43647;DHT22;56152;49.996;18.980;2023-04-29T16:20:57;14.60;78.90
43647;DHT22;56152;49.996;18.980;2023-04-29T16:26:02;14.50;79.90
43647;DHT22;56152;49.996;18.980;2023-04-29T16:31:04;14.30;80.70
43647;DHT22;56152;49.996;18.980;2023-04-29T16:36:06;14.20;81.10
43647;DHT22;56152;49.996;18.980;2023-04-29T16:41:09;14.10;81.50
43647;DHT22;56152;49.996;18.980;2023-04-29T16:46:11;14.00;82.20
43647;DHT22;56152;49.996;18.980;2023-04-29T16:51:13;13.90;82.70
43647;DHT22;56152;49.996;18.980;2023-04-29T16:56:17;13.80;83.50
43647;DHT22;56152;49.996;18.980;2023-04-29T17:01:23;13.70;84.00
43647;DHT22;56152;49.996;18.980;2023-04-29T17:06:25;13.60;84.70
43647;DHT22;56152;49.996;18.980;2023-04-29T17:11:28;13.40;85.50
43647;DHT22;56152;49.996;18.980;2023-04-29T17:16:34;13.30;86.30
43647;DHT22;56152;49.996;18.980;2023-04-29T17:21:36;13.20;87.10
43647;DHT22;56152;49.996;18.980;2023-04-29T17:26:40;13.20;87.60
43647;DHT22;56152;49.996;18.980;2023-04-29T17:31:41;13.10;87.90
43647;DHT22;56152;49.996;18.980;2023-04-29T17:36:54;13.00;88.10
43647;DHT22;56152;49.996;18.980;2023-04-29T17:41:58;12.90;88.40
43647;DHT22;56152;49.996;18.980;2023-04-29T17:47:00;12.80;89.00
43647;DHT22;56152;49.996;18.980;2023-04-29T17:52:09;12.70;89.00
43647;DHT22;56152;49.996;18.980;2023-04-29T17:57:19;12.70;89.20
43647;DHT22;56152;49.996;18.980;2023-04-29T18:02:21;12.60;89.40
43647;DHT22;56152;49.996;18.980;2023-04-29T18:07:24;12.60;89.60
43647;DHT22;56152;49.996;18.980;2023-04-29T18:12:37;12.60;89.80
43647;DHT22;56152;49.996;18.980;2023-04-29T18:17:38;12.60;89.80
43647;DHT22;56152;49.996;18.980;2023-04-29T18:22:40;12.60;89.80
43647;DHT22;56152;49.996;18.980;2023-04-29T18:27:47;12.50;89.80
43647;DHT22;56152;49.996;18.980;2023-04-29T18:32:50;12.50;90.00
43647;DHT22;56152;49.996;18.980;2023-04-29T18:37:54;12.40;90.10
43647;DHT22;56152;49.996;18.980;2023-04-29T18:42:57;12.40;90.10
43647;DHT22;56152;49.996;18.980;2023-04-29T18:47:59;12.30;90.10
43647;DHT22;56152;49.996;18.980;2023-04-29T18:53:05;12.30;90.20
43647;DHT22;56152;49.996;18.980;2023-04-29T18:58:09;12.40;90.30
43647;DHT22;56152;49.996;18.980;2023-04-29T19:03:11;12.40;90.40
43647;DHT22;56152;49.996;18.980;2023-04-29T19:08:13;12.30;90.40
43647;DHT22;56152;49.996;18.980;2023-04-29T19:13:19;12.30;90.40
43647;DHT22;56152;49.996;18.980;2023-04-29T19:18:21;12.40;90.60
43647;DHT22;56152;49.996;18.980;2023-04-29T19:23:23;12.30;90.60
43647;DHT22;56152;49.996;18.980;2023-04-29T19:28:27;12.30;90.70
43647;DHT22;56152;49.996;18.980;2023-04-29T19:33:29;12.30;90.80
43647;DHT22;56152;49.996;18.980;2023-04-29T19:38:31;12.30;90.80
43647;DHT22;56152;49.996;18.980;2023-04-29T19:43:35;12.30;91.00
43647;DHT22;56152;49.996;18.980;2023-04-29T19:48:37;12.30;91.10
43647;DHT22;56152;49.996;18.980;2023-04-29T19:53:40;12.30;91.20
43647;DHT22;56152;49.996;18.980;2023-04-29T19:58:45;12.30;91.20
43647;DHT22;56152;49.996;18.980;2023-04-29T20:03:47;12.30;91.40
43647;DHT22;56152;49.996;18.980;2023-04-29T20:08:49;12.30;91.50
43647;DHT22;56152;49.996;18.980;2023-04-29T20:13:53;12.30;91.60
43647;DHT22;56152;49.996;18.980;2023-04-29T20:18:59;12.20;91.70
43647;DHT22;56152;49.996;18.980;2023-04-29T20:24:01;12.20;91.70
43647;DHT22;56152;49.996;18.980;2023-04-29T20:29:07;12.20;91.70
43647;DHT22;56152;49.996;18.980;2023-04-29T20:34:09;12.10;91.80
43647;DHT22;56152;49.996;18.980;2023-04-29T20:39:11;12.10;91.90
43647;DHT22;56152;49.996;18.980;2023-04-29T20:44:14;12.00;92.00
43647;DHT22;56152;49.996;18.980;2023-04-29T20:49:16;12.00;92.10
43647;DHT22;56152;49.996;18.980;2023-04-29T20:54:18;11.90;92.20
43647;DHT22;56152;49.996;18.980;2023-04-29T20:59:26;11.90;92.20
43647;DHT22;56152;49.996;18.980;2023-04-29T21:04:28;11.90;92.30
43647;DHT22;56152;49.996;18.980;2023-04-29T21:09:30;11.80;92.40
43647;DHT22;56152;49.996;18.980;2023-04-29T21:14:37;11.80;92.50
43647;DHT22;56152;49.996;18.980;2023-04-29T21:19:39;11.80;92.60
43647;DHT22;56152;49.996;18.980;2023-04-29T21:24:41;11.80;92.60
43647;DHT22;56152;49.996;18.980;2023-04-29T21:29:49;11.70;92.60
43647;DHT22;56152;49.996;18.980;2023-04-29T21:34:57;11.70;92.80
43647;DHT22;56152;49.996;18.980;2023-04-29T21:39:59;11.70;92.80
43647;DHT22;56152;49.996;18.980;2023-04-29T21:45:06;11.60;92.90
43647;DHT22;56152;49.996;18.980;2023-04-29T21:50:09;11.60;93.00
43647;DHT22;56152;49.996;18.980;2023-04-29T21:55:11;11.50;93.10
43647;DHT22;56152;49.996;18.980;2023-04-29T22:00:16;11.50;93.20
43647;DHT22;56152;49.996;18.980;2023-04-29T22:05:30;11.40;93.30
43647;DHT22;56152;49.996;18.980;2023-04-29T22:10:32;11.40;93.60
43647;DHT22;56152;49.996;18.980;2023-04-29T22:15:36;11.40;93.40
43647;DHT22;56152;49.996;18.980;2023-04-29T22:20:38;11.40;93.50
43647;DHT22;56152;49.996;18.980;2023-04-29T22:25:40;11.30;93.50
43647;DHT22;56152;49.996;18.980;2023-04-29T22:30:44;11.30;93.50
43647;DHT22;56152;49.996;18.980;2023-04-29T22:35:46;11.30;93.50
43647;DHT22;56152;49.996;18.980;2023-04-29T22:40:48;11.30;93.50
43647;DHT22;56152;49.996;18.980;2023-04-29T22:45:54;11.30;93.60
43647;DHT22;56152;49.996;18.980;2023-04-29T22:50:57;11.30;93.60
43647;DHT22;56152;49.996;18.980;2023-04-29T22:56:03;11.20;93.60
43647;DHT22;56152;49.996;18.980;2023-04-29T23:01:08;11.20;93.70
43647;DHT22;56152;49.996;18.980;2023-04-29T23:06:12;11.20;93.70
43647;DHT22;56152;49.996;18.980;2023-04-29T23:11:14;11.10;93.70
43647;DHT22;56152;49.996;18.980;2023-04-29T23:16:19;11.10;93.70
43647;DHT22;56152;49.996;18.980;2023-04-29T23:21:21;11.10;93.70
43647;DHT22;56152;49.996;18.980;2023-04-29T23:26:28;11.10;93.70
43647;DHT22;56152;49.996;18.980;2023-04-29T23:31:34;11.00;93.70
43647;DHT22;56152;49.996;18.980;2023-04-29T23:36:36;11.00;93.70
43647;DHT22;56152;49.996;18.980;2023-04-29T23:41:38;10.90;93.80
43647;DHT22;56152;49.996;18.980;2023-04-29T23:46:42;10.90;93.80
43647;DHT22;56152;49.996;18.980;2023-04-29T23:51:44;10.90;93.90
43647;DHT22;56152;49.996;18.980;2023-04-29T23:56:46;10.80;93.80
